createdAt,value
2022-10-11T00:00:14.017Z,101546.13
2022-10-11T00:02:40.846Z,101553.28
2022-10-11T00:05:08.807Z,101553.34
2022-10-11T00:07:38.024Z,101553.50
2022-10-11T00:10:08.256Z,101563.81
2022-10-11T00:12:36.355Z,101571.19
2022-10-11T00:15:06.029Z,101580.22
2022-10-11T00:17:33.226Z,101585.94
2022-10-11T00:20:00.310Z,101587.13
2022-10-11T00:22:27.263Z,101586.19
2022-10-11T00:24:54.412Z,101601.41
2022-10-11T00:27:21.249Z,101602.09
2022-10-11T00:29:48.312Z,101598.72
2022-10-11T00:32:15.211Z,101609.13
2022-10-11T00:34:42.676Z,101618.94
2022-10-11T00:37:09.617Z,101622.31
2022-10-11T00:39:36.520Z,101622.63
2022-10-11T00:42:04.161Z,101628.47
2022-10-11T00:44:33.325Z,101619.34
2022-10-11T00:47:09.529Z,101628.44
2022-10-11T00:49:54.390Z,101626.69
2022-10-11T00:52:32.502Z,101620.56
2022-10-11T00:55:12.289Z,101644.16
2022-10-11T00:57:44.037Z,101640.53
2022-10-11T01:00:13.955Z,101635.00
2022-10-11T01:02:41.741Z,101641.91
2022-10-11T01:05:29.303Z,101654.72
2022-10-11T01:08:01.072Z,101649.44
2022-10-11T01:10:28.990Z,101646.63
2022-10-11T01:13:48.194Z,101658.88
2022-10-11T01:17:00.263Z,101660.22
2022-10-11T01:19:45.622Z,101663.81
2022-10-11T01:23:05.862Z,101670.28
2022-10-11T01:26:13.098Z,101675.72
2022-10-11T01:29:15.337Z,101676.03
2022-10-11T01:32:12.697Z,101688.25
2022-10-11T01:35:03.466Z,101696.75
2022-10-11T01:37:43.823Z,101693.09
2022-10-11T01:40:23.232Z,101695.19
2022-10-11T01:42:51.677Z,101702.03
2022-10-11T01:45:20.759Z,101693.19
2022-10-11T01:47:48.035Z,101696.09
2022-10-11T01:50:40.061Z,101696.31
2022-10-11T01:53:43.894Z,101702.34
2022-10-11T01:56:36.812Z,101705.69
2022-10-11T02:00:16.053Z,101703.28
2022-10-11T02:03:44.498Z,101706.66
2022-10-11T02:06:40.769Z,101709.97
2022-10-11T02:09:53.714Z,101713.06
2022-10-11T02:12:46.433Z,101720.53
2022-10-11T02:15:16.693Z,101714.16
2022-10-11T02:17:55.596Z,101724.47
2022-10-11T02:20:26.384Z,101720.34
2022-10-11T02:23:01.577Z,101731.09
2022-10-11T02:25:31.008Z,101731.91
2022-10-11T02:28:01.564Z,101723.25
2022-10-11T02:30:30.692Z,101728.84
2022-10-11T02:32:59.168Z,101732.78
2022-10-11T02:35:29.839Z,101736.69
2022-10-11T02:38:12.910Z,101739.19
2022-10-11T02:40:45.146Z,101741.44
2022-10-11T02:43:33.466Z,101748.88
2022-10-11T02:46:05.954Z,101740.69
2022-10-11T02:48:35.499Z,101755.13
2022-10-11T02:51:04.070Z,101750.19
2022-10-11T02:53:31.322Z,101752.88
2022-10-11T02:55:58.266Z,101743.41
2022-10-11T02:58:25.615Z,101755.16
2022-10-11T03:00:52.683Z,101763.41
2022-10-11T03:03:19.827Z,101758.28
2022-10-11T03:05:47.129Z,101752.75
2022-10-11T03:08:17.154Z,101768.00
2022-10-11T03:10:45.146Z,101764.72
2022-10-11T03:13:16.001Z,101766.41
2022-10-11T03:16:02.333Z,101778.56
2022-10-11T03:18:31.468Z,101779.19
2022-10-11T03:20:58.890Z,101791.16
2022-10-11T03:23:25.768Z,101795.72
2022-10-11T03:25:52.749Z,101804.56
2022-10-11T03:28:20.232Z,101802.31
2022-10-11T03:30:51.670Z,101813.84
2022-10-11T03:33:19.271Z,101820.66
2022-10-11T03:35:47.410Z,101818.00
2022-10-11T03:38:21.939Z,101827.88
2022-10-11T03:40:49.248Z,101814.31
2022-10-11T03:43:16.607Z,101825.44
2022-10-11T03:45:43.753Z,101817.81
2022-10-11T03:48:11.566Z,101820.91
2022-10-11T03:50:38.966Z,101827.31
2022-10-11T03:53:07.550Z,101840.69
2022-10-11T03:55:34.557Z,101836.38
2022-10-11T03:58:01.517Z,101837.63
2022-10-11T04:00:28.644Z,101847.72
2022-10-11T04:02:55.695Z,101833.13
2022-10-11T04:05:22.654Z,101854.13
2022-10-11T04:07:49.757Z,101844.44
2022-10-11T04:10:17.264Z,101855.59
2022-10-11T04:12:44.226Z,101851.06
2022-10-11T04:15:13.798Z,101847.97
2022-10-11T04:17:41.649Z,101866.72
2022-10-11T04:20:09.597Z,101864.25
2022-10-11T04:22:36.753Z,101865.50
2022-10-11T04:25:04.285Z,101863.03
2022-10-11T04:27:31.293Z,101868.59
2022-10-11T04:29:58.241Z,101871.09
2022-10-11T04:32:25.384Z,101873.16
2022-10-11T04:34:53.282Z,101880.38
2022-10-11T04:37:20.453Z,101882.44
2022-10-11T04:39:47.583Z,101894.16
2022-10-11T04:42:14.606Z,101882.19
2022-10-11T04:44:41.454Z,101887.75
2022-10-11T04:47:08.695Z,101881.19
2022-10-11T04:49:35.618Z,101885.94
2022-10-11T04:52:02.970Z,101882.03
2022-10-11T04:54:30.062Z,101884.09
2022-10-11T04:56:56.885Z,101892.94
2022-10-11T04:59:23.889Z,101891.28
2022-10-11T05:01:51.047Z,101892.75
2022-10-11T05:04:17.998Z,101902.22
2022-10-11T05:06:45.007Z,101902.00
2022-10-11T05:09:11.921Z,101908.19
2022-10-11T05:11:39.061Z,101910.25
2022-10-11T05:14:05.957Z,101902.63
2022-10-11T05:16:33.065Z,101910.47
2022-10-11T05:19:00.104Z,101908.19
2022-10-11T05:21:29.107Z,101920.13
2022-10-11T05:23:57.290Z,101921.16
2022-10-11T05:26:27.605Z,101935.56
2022-10-11T05:28:55.346Z,101933.72
2022-10-11T05:31:22.724Z,101941.94
2022-10-11T05:33:49.745Z,101942.16
2022-10-11T05:36:17.220Z,101958.00
2022-10-11T05:38:44.168Z,101947.91
2022-10-11T05:41:14.835Z,101948.75
2022-10-11T05:44:08.180Z,101953.88
2022-10-11T05:46:35.353Z,101960.28
2022-10-11T05:49:02.364Z,101959.44
2022-10-11T05:51:29.439Z,101952.03
2022-10-11T05:54:22.115Z,101963.56
2022-10-11T05:56:49.026Z,101962.31
2022-10-11T05:59:15.863Z,101965.63
2022-10-11T06:01:43.063Z,101969.72
2022-10-11T06:04:11.735Z,101983.53
2022-10-11T06:06:38.590Z,101974.47
2022-10-11T06:09:05.554Z,101985.38
2022-10-11T06:11:32.602Z,101983.94
2022-10-11T06:13:59.601Z,101986.19
2022-10-11T06:16:27.532Z,101996.09
2022-10-11T06:18:56.843Z,101992.38
2022-10-11T06:21:24.482Z,101994.84
2022-10-11T06:23:56.866Z,101996.06
2022-10-11T06:26:27.675Z,102003.88
2022-10-11T06:28:54.907Z,102000.38
2022-10-11T06:31:23.231Z,102003.22
2022-10-11T06:33:50.069Z,102002.59
2022-10-11T06:36:17.655Z,102010.81
2022-10-11T06:38:45.403Z,102013.88
2022-10-11T06:41:26.642Z,102017.31
2022-10-11T06:43:53.566Z,102024.13
2022-10-11T06:46:23.449Z,102021.00
2022-10-11T06:48:51.371Z,102023.38
2022-10-11T06:51:21.244Z,102033.41
2022-10-11T06:53:55.286Z,102037.22
2022-10-11T06:56:22.248Z,102036.06
2022-10-11T06:58:51.158Z,102038.59
2022-10-11T07:01:21.180Z,102041.94
2022-10-11T07:03:48.718Z,102037.47
2022-10-11T07:06:25.266Z,102034.53
2022-10-11T07:08:52.757Z,102050.69
2022-10-11T07:11:23.882Z,102046.84
2022-10-11T07:13:53.753Z,102045.47
2022-10-11T07:16:21.806Z,102052.44
2022-10-11T07:19:00.460Z,102055.56
2022-10-11T07:21:30.013Z,102051.63
2022-10-11T07:23:56.909Z,102053.78
2022-10-11T07:26:23.874Z,102066.97
2022-10-11T07:28:50.824Z,102058.75
2022-10-11T07:31:23.483Z,102064.22
2022-10-11T07:33:50.918Z,102057.75
2022-10-11T07:36:17.865Z,102064.84
2022-10-11T07:38:46.851Z,102066.81
2022-10-11T07:41:14.481Z,102071.81
2022-10-11T07:43:43.330Z,102071.91
2022-10-11T07:46:11.208Z,102063.03
2022-10-11T07:48:38.757Z,102067.16
2022-10-11T07:51:16.267Z,102077.50
2022-10-11T07:53:46.650Z,102077.34
2022-10-11T07:56:17.713Z,102068.13
2022-10-11T07:59:11.161Z,102077.13
2022-10-11T08:01:38.416Z,102068.56
2022-10-11T08:04:05.498Z,102076.28
2022-10-11T08:06:32.748Z,102074.31
2022-10-11T08:09:01.048Z,102077.47
2022-10-11T08:11:35.059Z,102067.78
2022-10-11T08:14:08.422Z,102078.97
2022-10-11T08:16:36.730Z,102069.81
2022-10-11T08:19:04.372Z,102065.75
2022-10-11T08:21:32.347Z,102070.31
2022-10-11T08:23:59.919Z,102070.28
2022-10-11T08:26:26.978Z,102063.06
2022-10-11T08:28:53.926Z,102062.88
2022-10-11T08:31:21.342Z,102067.09
2022-10-11T08:33:48.247Z,102066.38
2022-10-11T08:36:15.558Z,102064.06
2022-10-11T08:38:42.643Z,102066.13
2022-10-11T08:41:38.854Z,102071.56
2022-10-11T08:45:10.468Z,102068.75
2022-10-11T08:47:37.896Z,102063.69
2022-10-11T08:50:08.693Z,102073.47
2022-10-11T08:52:53.726Z,102059.59
2022-10-11T08:55:52.981Z,102070.34
2022-10-11T08:58:25.913Z,102075.16
2022-10-11T09:00:56.601Z,102077.69
2022-10-11T09:03:43.054Z,102066.34
2022-10-11T09:06:37.475Z,102075.22
2022-10-11T09:09:22.747Z,102067.09
2022-10-11T09:12:11.810Z,102076.63
2022-10-11T09:15:55.173Z,102073.00
2022-10-11T09:18:45.874Z,102066.94
2022-10-11T09:21:42.190Z,102066.78
2022-10-11T09:24:27.318Z,102064.06
2022-10-11T09:27:01.778Z,102065.06
2022-10-11T09:30:04.035Z,102060.91
2022-10-11T09:32:37.779Z,102059.47
2022-10-11T09:35:22.977Z,102068.16
2022-10-11T09:38:14.658Z,102065.84
2022-10-11T09:41:22.237Z,102061.47
2022-10-11T09:43:50.799Z,102061.00
2022-10-11T09:46:37.555Z,102057.72
2022-10-11T09:49:12.455Z,102065.19
2022-10-11T09:51:45.153Z,102064.69
2022-10-11T09:54:12.018Z,102049.75
2022-10-11T09:56:45.368Z,102046.47
2022-10-11T09:59:27.565Z,102041.09
2022-10-11T10:02:20.673Z,102038.50
2022-10-11T10:05:10.815Z,102041.59
2022-10-11T10:07:41.028Z,102043.50
2022-10-11T10:10:39.365Z,102047.94
2022-10-11T10:13:41.967Z,102047.09
2022-10-11T10:16:29.614Z,102050.47
2022-10-11T10:19:07.723Z,102051.72
2022-10-11T10:21:38.814Z,102044.72
2022-10-11T10:24:18.307Z,102045.28
2022-10-11T10:27:14.482Z,102042.06
2022-10-11T10:29:42.499Z,102057.28
2022-10-11T10:32:37.935Z,102053.38
2022-10-11T10:35:39.313Z,102051.09
2022-10-11T10:38:24.108Z,102054.38
2022-10-11T10:40:58.393Z,102056.56
2022-10-11T10:43:32.194Z,102060.53
2022-10-11T10:46:26.419Z,102049.59
2022-10-11T10:50:13.989Z,102068.22
2022-10-11T10:53:04.800Z,102066.56
2022-10-11T10:55:38.191Z,102051.75
2022-10-11T10:58:22.027Z,102055.28
2022-10-11T11:01:03.592Z,102059.22
2022-10-11T11:04:26.180Z,102067.38
2022-10-11T11:07:20.084Z,102063.91
2022-10-11T11:10:16.793Z,102072.19
2022-10-11T11:13:10.087Z,102056.84
2022-10-11T11:16:05.236Z,102056.03
2022-10-11T11:18:51.257Z,102044.97
2022-10-11T11:21:41.868Z,102051.06
2022-10-11T11:24:20.782Z,102047.94
2022-10-11T11:27:28.213Z,102043.75
2022-10-11T11:30:34.119Z,102059.03
2022-10-11T11:33:18.613Z,102059.75
2022-10-11T11:35:58.833Z,102059.94
2022-10-11T11:38:52.424Z,102068.50
2022-10-11T11:41:45.162Z,102061.41
2022-10-11T11:44:31.599Z,102067.59
2022-10-11T11:47:24.862Z,102052.22
2022-10-11T11:50:04.786Z,102063.63
2022-10-11T11:52:44.116Z,102047.28
2022-10-11T11:55:23.042Z,102065.16
2022-10-11T11:58:37.301Z,102060.41
2022-10-11T12:01:50.998Z,102059.91
2022-10-11T12:04:45.756Z,102059.13
2022-10-11T12:07:21.765Z,102058.91
2022-10-11T12:10:37.226Z,102056.28
2022-10-11T12:13:31.996Z,102066.50
2022-10-11T12:16:13.749Z,102071.28
2022-10-11T12:18:57.821Z,102079.31
2022-10-11T12:21:39.228Z,102074.38
2022-10-11T12:24:19.270Z,102081.41
2022-10-11T12:26:48.506Z,102071.69
2022-10-11T12:29:18.677Z,102082.38
2022-10-11T12:32:11.216Z,102082.47
2022-10-11T12:34:42.593Z,102082.56
2022-10-11T12:37:19.115Z,102081.91
2022-10-11T12:39:55.695Z,102079.16
2022-10-11T12:42:25.668Z,102079.72
2022-10-11T12:45:11.967Z,102078.81
2022-10-11T12:48:33.131Z,102077.06
2022-10-11T12:51:30.836Z,102071.34
2022-10-11T12:54:29.962Z,102069.91
2022-10-11T12:57:12.543Z,102066.19
2022-10-11T12:59:46.226Z,102072.47
2022-10-11T13:02:42.618Z,102065.00
2022-10-11T13:05:45.481Z,102076.97
2022-10-11T13:08:32.121Z,102056.19
2022-10-11T13:11:05.142Z,102067.56
2022-10-11T13:13:39.903Z,102066.44
2022-10-11T13:16:16.473Z,102069.19
2022-10-11T13:18:47.605Z,102076.56
2022-10-11T13:21:36.485Z,102067.53
2022-10-11T13:24:19.248Z,102069.63
2022-10-11T13:26:49.837Z,102066.75
2022-10-11T13:29:38.775Z,102064.06
2022-10-11T13:32:27.603Z,102067.81
2022-10-11T13:35:07.500Z,102068.47
2022-10-11T13:37:45.352Z,102053.38
2022-10-11T13:40:16.460Z,102059.13
2022-10-11T13:42:44.125Z,102053.44
2022-10-11T13:45:19.204Z,102059.16
2022-10-11T13:47:48.109Z,102058.75
2022-10-11T13:50:32.181Z,102063.78
2022-10-11T13:53:07.786Z,102062.09
2022-10-11T13:55:54.760Z,102066.13
2022-10-11T13:58:27.772Z,102061.91
2022-10-11T14:01:04.191Z,102075.53
2022-10-11T14:03:59.572Z,102071.91
2022-10-11T14:06:56.679Z,102067.34
2022-10-11T14:09:32.762Z,102074.75
2022-10-11T14:12:35.076Z,102072.91
2022-10-11T14:15:25.671Z,102078.88
2022-10-11T14:17:53.083Z,102071.16
2022-10-11T14:20:26.422Z,102082.84
2022-10-11T14:22:56.568Z,102079.47
2022-10-11T14:25:23.407Z,102088.84
2022-10-11T14:27:50.592Z,102070.59
2022-10-11T14:30:26.106Z,102079.41
2022-10-11T14:32:56.966Z,102093.94
2022-10-11T14:35:31.956Z,102093.19
2022-10-11T14:37:59.204Z,102089.13
2022-10-11T14:40:30.086Z,102077.41
2022-10-11T14:43:22.312Z,102079.59
2022-10-11T14:45:49.564Z,102077.97
2022-10-11T14:48:26.712Z,102089.16
2022-10-11T14:51:04.796Z,102089.44
2022-10-11T14:53:31.629Z,102091.63
2022-10-11T14:55:58.608Z,102083.97
2022-10-11T14:58:25.567Z,102090.50
2022-10-11T15:01:17.852Z,102097.03
2022-10-11T15:03:44.946Z,102091.53
2022-10-11T15:06:24.286Z,102095.59
2022-10-11T15:08:51.352Z,102092.84
2022-10-11T15:11:20.797Z,102088.75
2022-10-11T15:13:48.580Z,102092.00
2022-10-11T15:16:19.839Z,102092.53
2022-10-11T15:18:52.144Z,102093.56
2022-10-11T15:21:23.454Z,102102.22
2022-10-11T15:23:53.785Z,102090.22
2022-10-11T15:26:28.800Z,102086.03
2022-10-11T15:28:57.235Z,102082.72
2022-10-11T15:31:24.447Z,102088.97
2022-10-11T15:33:55.388Z,102094.34
2022-10-11T15:36:22.839Z,102087.78
2022-10-11T15:38:50.092Z,102095.28
2022-10-11T15:41:19.056Z,102090.84
2022-10-11T15:43:48.672Z,102091.28
2022-10-11T15:46:20.284Z,102098.19
2022-10-11T15:48:48.599Z,102101.34
2022-10-11T15:51:16.214Z,102096.84
2022-10-11T15:53:43.513Z,102108.06
2022-10-11T15:56:16.740Z,102107.66
2022-10-11T15:58:44.129Z,102103.41
2022-10-11T16:01:19.289Z,102104.09
2022-10-11T16:03:48.947Z,102107.94
2022-10-11T16:06:17.676Z,102105.53
2022-10-11T16:08:45.040Z,102118.28
2022-10-11T16:11:13.237Z,102117.56
2022-10-11T16:13:40.581Z,102126.53
2022-10-11T16:16:09.712Z,102127.91
2022-10-11T16:18:37.135Z,102139.06
2022-10-11T16:21:11.062Z,102134.47
2022-10-11T16:23:38.722Z,102136.38
2022-10-11T16:26:11.016Z,102131.78
2022-10-11T16:28:38.592Z,102137.72
2022-10-11T16:31:17.933Z,102142.31
2022-10-11T16:33:46.210Z,102140.63
2022-10-11T16:36:31.733Z,102137.38
2022-10-11T16:39:00.810Z,102139.97
2022-10-11T16:41:27.837Z,102147.75
2022-10-11T16:44:27.889Z,102142.72
2022-10-11T16:46:55.812Z,102150.47
2022-10-11T16:49:26.918Z,102157.50
2022-10-11T16:51:59.029Z,102143.41
2022-10-11T16:54:30.613Z,102162.75
2022-10-11T16:56:58.927Z,102156.47
2022-10-11T16:59:26.121Z,102158.56
2022-10-11T17:01:53.221Z,102155.78
2022-10-11T17:04:20.117Z,102164.66
2022-10-11T17:06:47.366Z,102163.22
2022-10-11T17:09:14.482Z,102168.53
2022-10-11T17:11:42.090Z,102170.97
2022-10-11T17:14:11.055Z,102178.16
2022-10-11T17:16:37.984Z,102164.84
2022-10-11T17:19:05.426Z,102169.06
2022-10-11T17:21:32.414Z,102187.38
2022-10-11T17:23:59.445Z,102176.75
2022-10-11T17:26:27.272Z,102180.53
2022-10-11T17:28:59.583Z,102178.59
2022-10-11T17:31:28.210Z,102193.81
2022-10-11T17:34:20.642Z,102189.16
2022-10-11T17:36:47.959Z,102193.97
2022-10-11T17:39:19.032Z,102191.75
2022-10-11T17:42:11.261Z,102191.63
2022-10-11T17:44:38.306Z,102186.94
2022-10-11T17:47:05.493Z,102184.28
2022-10-11T17:49:32.420Z,102183.13
2022-10-11T17:51:59.262Z,102195.53
2022-10-11T17:54:26.697Z,102193.13
2022-10-11T17:56:54.425Z,102199.34
2022-10-11T17:59:21.700Z,102191.75
2022-10-11T18:01:50.308Z,102195.31
2022-10-11T18:04:21.301Z,102188.50
2022-10-11T18:06:49.852Z,102191.63
2022-10-11T18:09:18.572Z,102195.78
2022-10-11T18:11:47.218Z,102194.38
2022-10-11T18:14:14.973Z,102192.75
2022-10-11T18:16:42.698Z,102204.31
2022-10-11T18:19:13.320Z,102194.44
2022-10-11T18:21:40.759Z,102193.41
2022-10-11T18:24:15.312Z,102196.94
2022-10-11T18:26:44.428Z,102199.63
2022-10-11T18:29:12.637Z,102186.44
2022-10-11T18:31:40.934Z,102184.38
2022-10-11T18:34:10.845Z,102191.41
2022-10-11T18:36:38.665Z,102192.22
2022-10-11T18:39:08.638Z,102190.97
2022-10-11T18:41:38.678Z,102195.91
2022-10-11T18:44:08.454Z,102202.09
2022-10-11T18:46:36.455Z,102200.03
2022-10-11T18:49:03.522Z,102201.06
2022-10-11T18:51:39.137Z,102205.81
2022-10-11T18:54:08.329Z,102197.97
2022-10-11T18:56:37.236Z,102196.75
2022-10-11T18:59:05.554Z,102199.84
2022-10-11T19:01:39.973Z,102189.13
2022-10-11T19:04:10.878Z,102192.22
2022-10-11T19:06:45.363Z,102189.31
2022-10-11T19:09:21.723Z,102204.97
2022-10-11T19:11:54.407Z,102192.81
2022-10-11T19:14:28.547Z,102202.91
2022-10-11T19:16:56.742Z,102190.13
2022-10-11T19:19:29.351Z,102195.25
2022-10-11T19:21:56.636Z,102193.16
2022-10-11T19:24:26.697Z,102192.94
2022-10-11T19:26:58.400Z,102191.91
2022-10-11T19:29:28.781Z,102191.69
2022-10-11T19:31:59.742Z,102195.59
2022-10-11T19:37:19.217Z,102188.97
2022-10-11T19:39:46.038Z,102187.91
2022-10-11T19:42:13.076Z,102195.50
2022-10-11T19:44:39.964Z,102198.75
2022-10-11T19:47:07.159Z,102195.88
2022-10-11T19:49:34.545Z,102199.56
2022-10-11T19:52:02.491Z,102199.97
2022-10-11T19:54:29.430Z,102199.53
2022-10-11T19:56:56.618Z,102199.31
2022-10-11T19:59:23.549Z,102200.72
2022-10-11T20:01:53.103Z,102208.13
2022-10-11T20:07:08.672Z,102209.13
2022-10-11T20:09:35.623Z,102207.47
2022-10-11T20:12:02.538Z,102202.72
2022-10-11T20:14:30.098Z,102199.63
2022-10-11T20:16:57.144Z,102199.16
2022-10-11T20:19:30.389Z,102204.88
2022-10-11T20:22:01.874Z,102208.78
2022-10-11T20:24:32.541Z,102212.03
2022-10-11T20:27:02.918Z,102211.81
2022-10-11T20:29:29.813Z,102211.38
2022-10-11T20:31:56.610Z,102198.78
2022-10-11T20:34:23.677Z,102202.69
2022-10-11T20:36:50.673Z,102218.28
2022-10-11T20:39:17.930Z,102217.66
2022-10-11T20:41:48.196Z,102224.22
2022-10-11T20:44:16.046Z,102227.47
2022-10-11T20:46:43.246Z,102220.88
2022-10-11T20:49:11.697Z,102227.84
2022-10-11T20:51:41.600Z,102226.78
2022-10-11T20:54:13.383Z,102222.03
2022-10-11T20:56:40.401Z,102219.75
2022-10-11T20:59:07.688Z,102214.97
2022-10-11T21:01:38.612Z,102225.84
2022-10-11T21:04:07.691Z,102222.31
2022-10-11T21:06:34.678Z,102222.50
2022-10-11T21:09:02.034Z,102221.03
2022-10-11T21:11:31.769Z,102223.06
2022-10-11T21:14:02.281Z,102223.47
2022-10-11T21:16:29.862Z,102216.84
2022-10-11T21:18:58.382Z,102216.56
2022-10-11T21:21:26.730Z,102227.44
2022-10-11T21:23:55.977Z,102229.03
2022-10-11T21:26:22.968Z,102232.66
2022-10-11T21:28:50.105Z,102237.16
2022-10-11T21:31:19.849Z,102239.38
2022-10-11T21:33:47.418Z,102243.22
2022-10-11T21:36:17.771Z,102255.09
2022-10-11T21:38:46.751Z,102246.66
2022-10-11T21:41:18.608Z,102241.69
2022-10-11T21:44:10.896Z,102243.28
2022-10-11T21:47:05.491Z,102250.66
2022-10-11T21:49:25.969Z,102239.53
2022-10-11T21:51:53.602Z,102236.59
2022-10-11T21:54:20.748Z,102229.16
2022-10-11T21:56:47.649Z,102241.47
2022-10-11T21:59:14.579Z,102230.16
2022-10-11T22:01:43.356Z,102234.22
2022-10-11T22:04:10.945Z,102226.22
2022-10-11T22:06:38.648Z,102235.44
2022-10-11T22:09:06.806Z,102234.16
2022-10-11T22:11:33.688Z,102225.88
2022-10-11T22:14:00.917Z,102240.03
2022-10-11T22:16:28.036Z,102241.06
2022-10-11T22:18:54.842Z,102236.91
2022-10-11T22:21:23.634Z,102233.63
2022-10-11T22:23:53.501Z,102228.47
2022-10-11T22:26:26.449Z,102226.81
2022-10-11T22:28:53.875Z,102228.56
2022-10-11T22:31:22.037Z,102230.22
2022-10-11T22:34:13.809Z,102236.09
2022-10-11T22:36:41.099Z,102240.13
2022-10-11T22:39:09.717Z,102233.78
2022-10-11T22:41:37.722Z,102236.19
2022-10-11T22:44:05.133Z,102238.66
2022-10-11T22:46:32.364Z,102230.22
2022-10-11T22:48:59.380Z,102230.59
2022-10-11T22:51:26.232Z,102232.59
2022-10-11T22:53:53.698Z,102233.63
2022-10-11T22:56:20.720Z,102234.00
2022-10-11T22:58:47.577Z,102217.25
2022-10-11T23:01:16.390Z,102218.47
2022-10-11T23:03:43.491Z,102213.97
2022-10-11T23:06:10.526Z,102224.63
2022-10-11T23:08:37.637Z,102222.69
2022-10-11T23:11:06.832Z,102222.03
2022-10-11T23:13:34.565Z,102232.34
2022-10-11T23:16:10.951Z,102230.88
2022-10-11T23:18:38.292Z,102229.22
2022-10-11T23:21:06.998Z,102226.28
2022-10-11T23:23:34.171Z,102235.09
2022-10-11T23:26:12.745Z,102238.59
2022-10-11T23:28:40.212Z,102242.44
2022-10-11T23:31:16.968Z,102241.81
2022-10-11T23:33:45.361Z,102238.66
2022-10-11T23:36:24.172Z,102232.34
2022-10-11T23:38:53.387Z,102228.75
2022-10-11T23:41:21.846Z,102238.03
2022-10-11T23:43:49.129Z,102236.75
2022-10-11T23:46:16.049Z,102240.69
2022-10-11T23:48:43.001Z,102242.88
2022-10-11T23:51:09.935Z,102241.69
2022-10-11T23:53:38.121Z,102253.19
2022-10-11T23:56:06.002Z,102237.38
2022-10-11T23:58:33.254Z,102236.91
